createdAt,value
2022-11-24T00:00:32.409Z,0.05
2022-11-24T00:03:26.568Z,0.05
2022-11-24T00:05:57.172Z,0.06
2022-11-24T00:08:27.268Z,0.08
2022-11-24T00:10:56.170Z,0.07
2022-11-24T00:13:31.026Z,0.07
2022-11-24T00:16:14.334Z,0.08
2022-11-24T00:18:51.320Z,0.09
2022-11-24T00:21:21.294Z,0.09
2022-11-24T00:23:57.123Z,0.09
2022-11-24T00:26:28.945Z,0.10
2022-11-24T00:29:06.247Z,0.12
2022-11-24T00:31:44.349Z,0.12
2022-11-24T00:34:18.762Z,0.10
2022-11-24T00:36:47.845Z,0.11
2022-11-24T00:39:18.269Z,0.10
2022-11-24T00:41:46.903Z,0.09
2022-11-24T00:44:15.720Z,0.09
2022-11-24T00:46:50.470Z,0.08
2022-11-24T00:49:19.559Z,0.09
2022-11-24T00:51:53.255Z,0.11
2022-11-24T00:54:25.701Z,0.14
2022-11-24T00:56:55.632Z,0.16
2022-11-24T00:59:24.391Z,0.17
2022-11-24T01:01:53.984Z,0.17
2022-11-24T01:04:25.199Z,0.17
2022-11-24T01:06:57.111Z,0.17
2022-11-24T01:09:27.439Z,0.18
2022-11-24T01:12:06.485Z,0.15
2022-11-24T01:14:36.586Z,0.15
2022-11-24T01:17:06.419Z,0.14
2022-11-24T01:19:35.563Z,0.13
2022-11-24T01:22:05.660Z,0.12
2022-11-24T01:24:36.607Z,0.12
2022-11-24T01:27:05.864Z,0.13
2022-11-24T01:29:35.797Z,0.15
2022-11-24T01:32:04.853Z,0.15
2022-11-24T01:34:37.326Z,0.15
2022-11-24T01:37:06.000Z,0.15
2022-11-24T01:39:35.695Z,0.14
2022-11-24T01:42:07.702Z,0.15
2022-11-24T01:44:37.057Z,0.15
2022-11-24T01:47:35.028Z,0.16
2022-11-24T01:50:08.504Z,0.17
2022-11-24T01:52:48.069Z,0.17
2022-11-24T01:55:26.306Z,0.16
2022-11-24T01:58:07.128Z,0.16
2022-11-24T02:00:39.000Z,0.16
2022-11-24T02:03:08.928Z,0.16
2022-11-24T02:05:46.561Z,0.17
2022-11-24T02:08:28.889Z,0.16
2022-11-24T02:10:58.280Z,0.14
2022-11-24T02:13:31.152Z,0.13
2022-11-24T02:16:03.735Z,0.10
2022-11-24T02:18:34.648Z,0.09
2022-11-24T02:21:05.189Z,0.10
2022-11-24T02:23:49.516Z,0.11
2022-11-24T02:26:46.199Z,0.12
2022-11-24T02:29:16.152Z,0.12
2022-11-24T02:31:53.895Z,0.12
2022-11-24T02:34:31.289Z,0.08
2022-11-24T02:37:00.124Z,0.06
2022-11-24T02:39:32.294Z,0.07
2022-11-24T02:42:06.618Z,0.04
2022-11-24T02:44:41.307Z,-0.04
2022-11-24T02:47:12.624Z,-0.04
2022-11-24T02:49:41.817Z,-0.04
2022-11-24T02:52:11.702Z,-0.05
2022-11-24T02:54:41.387Z,-0.06
2022-11-24T02:57:12.827Z,-0.05
2022-11-24T02:59:44.587Z,-0.05
2022-11-24T03:02:14.804Z,-0.06
2022-11-24T03:04:46.065Z,-0.06
2022-11-24T03:07:17.194Z,-0.06
2022-11-24T03:09:46.215Z,-0.05
2022-11-24T03:12:15.506Z,-0.04
2022-11-24T03:14:48.810Z,-0.05
2022-11-24T03:17:17.680Z,-0.09
2022-11-24T03:19:48.928Z,-0.10
2022-11-24T03:22:18.035Z,-0.11
2022-11-24T03:24:49.193Z,-0.11
2022-11-24T03:27:18.021Z,-0.10
2022-11-24T03:29:47.440Z,-0.11
2022-11-24T03:32:16.584Z,-0.13
2022-11-24T03:34:46.614Z,-0.14
2022-11-24T03:37:15.291Z,-0.13
2022-11-24T03:39:44.807Z,-0.12
2022-11-24T03:42:13.728Z,-0.13
2022-11-24T03:44:42.294Z,-0.12
2022-11-24T03:47:13.394Z,-0.13
2022-11-24T03:49:44.893Z,-0.11
2022-11-24T03:52:14.278Z,-0.09
2022-11-24T03:54:46.353Z,-0.11
2022-11-24T03:57:17.826Z,-0.11
2022-11-24T03:59:47.396Z,-0.11
2022-11-24T04:02:18.547Z,-0.10
2022-11-24T04:04:51.381Z,-0.11
2022-11-24T04:07:20.310Z,-0.11
2022-11-24T04:09:49.560Z,-0.12
2022-11-24T04:12:37.396Z,-0.12
2022-11-24T04:15:06.584Z,-0.18
2022-11-24T04:17:37.454Z,-0.21
2022-11-24T04:20:06.995Z,-0.24
2022-11-24T04:22:38.459Z,-0.28
2022-11-24T04:25:11.810Z,-0.28
2022-11-24T04:27:40.556Z,-0.23
2022-11-24T04:30:10.021Z,-0.21
2022-11-24T04:32:38.395Z,-0.20
2022-11-24T04:35:08.936Z,-0.19
2022-11-24T04:37:39.202Z,-0.21
2022-11-24T04:40:10.694Z,-0.24
2022-11-24T04:42:39.428Z,-0.27
2022-11-24T04:45:09.244Z,-0.26
2022-11-24T04:47:39.130Z,-0.25
2022-11-24T04:50:09.377Z,-0.25
2022-11-24T04:52:38.960Z,-0.24
2022-11-24T04:55:09.019Z,-0.23
2022-11-24T04:57:41.642Z,-0.22
2022-11-24T05:00:10.889Z,-0.24
2022-11-24T05:02:40.995Z,-0.24
2022-11-24T05:05:11.346Z,-0.25
2022-11-24T05:07:42.971Z,-0.25
2022-11-24T05:10:32.464Z,-0.22
2022-11-24T05:13:02.190Z,-0.20
2022-11-24T05:15:32.178Z,-0.18
2022-11-24T05:18:07.209Z,-0.17
2022-11-24T05:20:36.511Z,-0.19
2022-11-24T05:23:07.681Z,-0.20
2022-11-24T05:25:37.483Z,-0.24
2022-11-24T05:28:10.379Z,-0.26
2022-11-24T05:30:40.422Z,-0.25
2022-11-24T05:33:13.165Z,-0.25
2022-11-24T05:35:42.327Z,-0.24
2022-11-24T05:38:11.712Z,-0.23
2022-11-24T05:40:42.753Z,-0.25
2022-11-24T05:43:12.957Z,-0.25
2022-11-24T05:45:45.502Z,-0.24
2022-11-24T05:48:16.497Z,-0.24
2022-11-24T05:50:48.229Z,-0.24
2022-11-24T05:53:16.748Z,-0.22
2022-11-24T05:55:46.095Z,-0.21
2022-11-24T05:58:14.801Z,-0.20
2022-11-24T06:00:44.013Z,-0.20
2022-11-24T06:03:13.957Z,-0.21
2022-11-24T06:05:47.640Z,-0.22
2022-11-24T06:08:16.629Z,-0.20
2022-11-24T06:10:50.372Z,-0.20
2022-11-24T06:13:18.993Z,-0.23
2022-11-24T06:15:49.195Z,-0.23
2022-11-24T06:18:19.051Z,-0.22
2022-11-24T06:21:09.215Z,-0.28
2022-11-24T06:23:37.581Z,-0.30
2022-11-24T06:26:07.801Z,-0.30
2022-11-24T06:28:38.615Z,-0.30
2022-11-24T06:31:07.343Z,-0.30
2022-11-24T06:33:40.039Z,-0.34
2022-11-24T06:36:13.063Z,-0.33
2022-11-24T06:38:42.572Z,-0.32
2022-11-24T06:41:20.889Z,-0.32
2022-11-24T06:43:53.111Z,-0.36
2022-11-24T06:46:22.890Z,-0.34
2022-11-24T06:48:54.691Z,-0.31
2022-11-24T06:51:23.186Z,-0.29
2022-11-24T06:53:52.290Z,-0.28
2022-11-24T06:56:21.627Z,-0.26
2022-11-24T06:58:52.596Z,-0.28
2022-11-24T07:01:26.154Z,-0.30
2022-11-24T07:03:56.437Z,-0.34
2022-11-24T07:06:26.689Z,-0.39
2022-11-24T07:08:55.318Z,-0.39
2022-11-24T07:11:28.380Z,-0.39
2022-11-24T07:14:00.037Z,-0.38
2022-11-24T07:16:41.905Z,-0.36
2022-11-24T07:19:23.090Z,-0.33
2022-11-24T07:25:23.067Z,-0.27
2022-11-24T07:28:07.491Z,-0.28
2022-11-24T07:31:00.335Z,-0.31
2022-11-24T07:33:45.019Z,-0.32
2022-11-24T07:36:24.937Z,-0.32
2022-11-24T07:39:20.743Z,-0.30
2022-11-24T07:42:08.320Z,-0.30
2022-11-24T07:44:46.820Z,-0.32
2022-11-24T07:47:19.093Z,-0.33
2022-11-24T07:50:17.020Z,-0.31
2022-11-24T07:53:13.264Z,-0.30
2022-11-24T07:56:02.979Z,-0.28
2022-11-24T07:58:38.022Z,-0.28
2022-11-24T08:01:21.688Z,-0.30
2022-11-24T08:04:01.776Z,-0.29
2022-11-24T08:06:43.311Z,-0.24
2022-11-24T08:09:30.138Z,-0.25
2022-11-24T08:12:08.207Z,-0.24
2022-11-24T08:14:51.803Z,-0.22
2022-11-24T08:17:27.763Z,-0.20
2022-11-24T08:19:57.847Z,-0.19
2022-11-24T08:22:34.543Z,-0.17
2022-11-24T08:25:06.375Z,-0.16
2022-11-24T08:27:45.070Z,-0.15
2022-11-24T08:30:17.168Z,-0.11
2022-11-24T08:32:49.976Z,-0.09
2022-11-24T08:35:23.784Z,-0.08
2022-11-24T08:38:01.659Z,-0.07
2022-11-24T08:40:37.148Z,-0.05
2022-11-24T08:43:09.108Z,-0.05
2022-11-24T08:45:41.381Z,-0.06
2022-11-24T08:48:18.977Z,-0.05
2022-11-24T08:50:50.527Z,-0.05
2022-11-24T08:53:21.727Z,-0.04
2022-11-24T08:55:51.766Z,-0.04
2022-11-24T08:58:27.453Z,-0.00
2022-11-24T09:01:12.249Z,0.05
2022-11-24T09:03:50.348Z,0.08
2022-11-24T09:06:31.577Z,0.03
2022-11-24T09:09:02.837Z,-0.05
2022-11-24T09:11:46.930Z,-0.07
2022-11-24T09:14:19.623Z,-0.05
2022-11-24T09:16:52.760Z,-0.02
2022-11-24T09:19:26.208Z,0.01
2022-11-24T09:21:59.302Z,0.02
2022-11-24T09:24:30.463Z,0.06
2022-11-24T09:27:01.278Z,0.09
2022-11-24T09:29:32.601Z,0.08
2022-11-24T09:32:06.690Z,0.03
2022-11-24T09:34:40.078Z,0.00
2022-11-24T09:37:09.452Z,0.02
2022-11-24T09:39:41.846Z,0.06
2022-11-24T09:42:39.850Z,0.10
2022-11-24T09:46:06.668Z,0.12
2022-11-24T09:48:43.210Z,0.07
2022-11-24T09:51:34.426Z,0.10
2022-11-24T09:54:47.427Z,0.09
2022-11-24T09:57:18.858Z,0.09
2022-11-24T09:59:47.951Z,0.12
2022-11-24T10:02:18.079Z,0.17
2022-11-24T10:04:55.845Z,0.23
2022-11-24T10:07:35.247Z,0.27
2022-11-24T10:10:43.236Z,0.27
2022-11-24T10:13:26.055Z,0.30
2022-11-24T10:16:14.759Z,0.31
2022-11-24T10:19:06.014Z,0.30
2022-11-24T10:21:49.036Z,0.27
2022-11-24T10:24:37.385Z,0.31
2022-11-24T10:27:20.265Z,0.35
2022-11-24T10:29:55.777Z,0.42
2022-11-24T10:32:30.636Z,0.46
2022-11-24T10:35:17.707Z,0.49
2022-11-24T10:37:58.054Z,0.53
2022-11-24T10:43:28.532Z,0.60
2022-11-24T10:46:12.672Z,0.63
2022-11-24T10:49:01.287Z,0.63
2022-11-24T10:51:55.580Z,0.65
2022-11-24T10:54:28.439Z,0.67
2022-11-24T10:57:02.820Z,0.69
2022-11-24T10:59:38.954Z,0.74
2022-11-24T11:02:30.434Z,0.78
2022-11-24T11:05:20.307Z,0.83
2022-11-24T11:08:21.527Z,0.85
2022-11-24T11:11:33.057Z,0.86
2022-11-24T11:14:10.355Z,0.86
2022-11-24T11:16:54.720Z,0.88
2022-11-24T11:20:00.252Z,1.00
2022-11-24T11:22:39.455Z,1.23
2022-11-24T11:25:41.618Z,1.44
2022-11-24T11:28:37.856Z,1.46
2022-11-24T11:31:29.981Z,1.54
2022-11-24T11:34:22.075Z,1.63
2022-11-24T11:36:59.436Z,1.69
2022-11-24T11:39:57.543Z,1.77
2022-11-24T11:45:35.245Z,1.83
2022-11-24T11:48:18.692Z,1.80
2022-11-24T11:51:24.411Z,1.81
2022-11-24T11:54:03.163Z,1.90
2022-11-24T11:56:49.352Z,2.02
2022-11-24T11:59:28.216Z,2.05
2022-11-24T12:02:27.739Z,2.11
2022-11-24T12:05:02.567Z,2.13
2022-11-24T12:07:55.592Z,2.20
2022-11-24T12:10:52.058Z,2.23
2022-11-24T12:13:38.883Z,2.34
2022-11-24T12:17:00.015Z,2.37
2022-11-24T12:19:48.527Z,2.40
2022-11-24T12:22:22.260Z,2.43
2022-11-24T12:25:04.003Z,2.49
2022-11-24T12:27:51.078Z,2.47
2022-11-24T12:30:42.131Z,2.50
2022-11-24T12:33:35.022Z,2.55
2022-11-24T12:36:28.754Z,2.55
2022-11-24T12:39:19.513Z,2.50
2022-11-24T12:42:34.710Z,2.44
2022-11-24T12:45:10.045Z,2.41
2022-11-24T12:48:23.124Z,2.40
2022-11-24T12:50:55.064Z,2.38
2022-11-24T12:53:33.510Z,2.38
2022-11-24T12:56:15.239Z,2.35
2022-11-24T12:59:09.117Z,2.35
2022-11-24T13:02:01.730Z,2.38
2022-11-24T13:05:13.813Z,2.36
2022-11-24T13:08:02.364Z,2.36
2022-11-24T13:10:58.268Z,2.34
2022-11-24T13:13:59.931Z,2.35
2022-11-24T13:16:36.253Z,2.37
2022-11-24T13:19:37.838Z,2.41
2022-11-24T13:22:08.753Z,2.46
2022-11-24T13:24:41.294Z,2.49
2022-11-24T13:27:16.785Z,2.52
2022-11-24T13:29:48.466Z,2.53
2022-11-24T13:32:25.367Z,2.51
2022-11-24T13:35:04.017Z,2.48
2022-11-24T13:37:43.237Z,2.47
2022-11-24T13:40:19.579Z,2.46
2022-11-24T13:42:57.589Z,2.46
2022-11-24T13:45:49.691Z,2.48
2022-11-24T13:48:21.440Z,2.51
2022-11-24T13:50:58.591Z,2.50
2022-11-24T13:53:35.546Z,2.47
2022-11-24T13:56:21.766Z,2.46
2022-11-24T13:59:17.922Z,2.43
2022-11-24T14:02:03.379Z,2.42
2022-11-24T14:04:39.842Z,2.37
2022-11-24T14:07:18.365Z,2.34
2022-11-24T14:09:56.150Z,2.35
2022-11-24T14:12:31.812Z,2.32
2022-11-24T14:16:02.497Z,2.29
2022-11-24T14:18:33.470Z,2.25
2022-11-24T14:21:25.497Z,2.21
2022-11-24T14:24:43.127Z,2.19
2022-11-24T14:27:18.074Z,2.18
2022-11-24T14:30:02.297Z,2.18
2022-11-24T14:32:41.949Z,2.15
2022-11-24T14:35:33.467Z,2.11
2022-11-24T14:38:23.479Z,2.09
2022-11-24T14:41:00.263Z,2.05
2022-11-24T14:43:41.425Z,2.03
2022-11-24T14:46:22.561Z,2.00
2022-11-24T14:48:55.817Z,1.96
2022-11-24T14:51:29.524Z,1.92
2022-11-24T14:54:09.288Z,1.89
2022-11-24T14:56:57.753Z,1.86
2022-11-24T14:59:45.891Z,1.81
2022-11-24T15:02:40.327Z,1.76
2022-11-24T15:05:21.676Z,1.74
2022-11-24T15:08:15.361Z,1.71
2022-11-24T15:10:46.742Z,1.61
2022-11-24T15:13:21.851Z,1.55
2022-11-24T15:16:03.946Z,1.50
2022-11-24T15:18:44.143Z,1.46
2022-11-24T15:21:19.157Z,1.40
2022-11-24T15:24:26.351Z,1.34
2022-11-24T15:27:02.266Z,1.26
2022-11-24T15:29:34.047Z,1.20
2022-11-24T15:32:27.111Z,1.15
2022-11-24T15:35:06.871Z,1.09
2022-11-24T15:37:36.620Z,1.04
2022-11-24T15:40:11.749Z,1.01
2022-11-24T15:42:56.397Z,0.97
2022-11-24T15:45:26.927Z,0.93
2022-11-24T15:47:56.286Z,0.89
2022-11-24T15:50:28.381Z,0.85
2022-11-24T15:53:01.730Z,0.80
2022-11-24T15:55:35.819Z,0.77
2022-11-24T15:58:05.219Z,0.74
2022-11-24T16:00:36.119Z,0.74
2022-11-24T16:03:38.431Z,0.72
2022-11-24T16:05:59.233Z,0.69
2022-11-24T16:08:28.264Z,0.70
2022-11-24T16:11:00.122Z,0.69
2022-11-24T16:13:32.292Z,0.65
2022-11-24T16:16:01.892Z,0.55
2022-11-24T16:18:33.329Z,0.45
2022-11-24T16:21:05.396Z,0.38
2022-11-24T16:23:38.380Z,0.30
2022-11-24T16:26:07.774Z,0.26
2022-11-24T16:28:42.162Z,0.24
2022-11-24T16:31:16.085Z,0.21
2022-11-24T16:33:47.540Z,0.18
2022-11-24T16:36:21.293Z,0.15
2022-11-24T16:38:54.445Z,0.12
2022-11-24T16:41:27.095Z,0.11
2022-11-24T16:43:58.439Z,0.08
2022-11-24T16:46:27.869Z,0.04
2022-11-24T16:49:03.858Z,0.06
2022-11-24T16:51:36.240Z,0.06
2022-11-24T16:54:08.503Z,0.05
2022-11-24T16:56:42.062Z,0.03
2022-11-24T16:59:12.723Z,0.02
2022-11-24T17:01:41.932Z,0.03
2022-11-24T17:04:13.017Z,0.03
2022-11-24T17:06:42.716Z,0.01
2022-11-24T17:09:13.473Z,0.01
2022-11-24T17:11:46.199Z,0.04
2022-11-24T17:14:15.965Z,0.09
2022-11-24T17:16:45.887Z,0.21
2022-11-24T17:19:15.066Z,0.28
2022-11-24T17:21:47.671Z,0.32
2022-11-24T17:24:18.057Z,0.33
2022-11-24T17:26:53.399Z,0.32
2022-11-24T17:29:22.621Z,0.30
2022-11-24T17:31:51.626Z,0.28
2022-11-24T17:34:20.851Z,0.29
2022-11-24T17:36:49.686Z,0.30
2022-11-24T17:39:24.557Z,0.26
2022-11-24T17:41:53.934Z,0.23
2022-11-24T17:44:22.737Z,0.19
2022-11-24T17:46:51.471Z,0.16
2022-11-24T17:49:22.057Z,0.15
2022-11-24T17:51:55.159Z,0.22
2022-11-24T17:57:15.549Z,0.14
2022-11-24T17:59:47.895Z,0.09
2022-11-24T18:02:18.009Z,0.06
2022-11-24T18:04:54.160Z,0.05
2022-11-24T18:07:27.239Z,0.05
2022-11-24T18:09:57.795Z,-0.00
2022-11-24T18:12:33.051Z,-0.08
2022-11-24T18:15:07.273Z,-0.10
2022-11-24T18:17:39.257Z,-0.11
2022-11-24T18:20:15.683Z,-0.14
2022-11-24T18:23:05.192Z,-0.18
2022-11-24T18:25:37.756Z,-0.22
2022-11-24T18:28:06.549Z,-0.21
2022-11-24T18:30:44.679Z,-0.23
2022-11-24T18:33:18.138Z,-0.26
2022-11-24T18:36:34.855Z,-0.30
2022-11-24T18:39:22.829Z,-0.34
2022-11-24T18:41:54.835Z,-0.35
2022-11-24T18:44:23.539Z,-0.33
2022-11-24T18:46:52.068Z,-0.30
2022-11-24T18:49:20.857Z,-0.27
2022-11-24T18:51:49.413Z,-0.30
2022-11-24T18:54:17.854Z,-0.33
2022-11-24T18:56:46.845Z,-0.39
2022-11-24T18:59:21.205Z,-0.47
2022-11-24T19:01:51.936Z,-0.53
2022-11-24T19:04:24.507Z,-0.57
2022-11-24T19:07:01.743Z,-0.61
2022-11-24T19:09:39.816Z,-0.66
2022-11-24T19:12:23.418Z,-0.69
2022-11-24T19:15:01.632Z,-0.75
2022-11-24T19:17:36.773Z,-0.82
2022-11-24T19:20:46.328Z,-0.85
2022-11-24T19:24:04.524Z,-0.88
2022-11-24T19:26:55.955Z,-0.98
2022-11-24T19:29:56.144Z,-1.04
2022-11-24T19:32:35.782Z,-1.08
2022-11-24T19:35:25.624Z,-1.13
2022-11-24T19:38:08.243Z,-1.17
2022-11-24T19:40:44.482Z,-1.18
2022-11-24T19:43:15.922Z,-1.15
2022-11-24T19:45:47.243Z,-1.13
2022-11-24T19:48:19.489Z,-1.13
2022-11-24T19:51:02.824Z,-1.11
2022-11-24T19:53:41.121Z,-1.10
2022-11-24T19:56:26.323Z,-1.11
2022-11-24T19:59:09.209Z,-1.07
2022-11-24T20:01:46.999Z,-1.04
2022-11-24T20:04:18.728Z,-1.02
2022-11-24T20:06:55.598Z,-1.01
2022-11-24T20:09:39.875Z,-0.99
2022-11-24T20:12:29.168Z,-0.96
2022-11-24T20:15:28.057Z,-0.94
2022-11-24T20:18:11.467Z,-0.90
2022-11-24T20:20:45.922Z,-0.87
2022-11-24T20:23:15.103Z,-0.84
2022-11-24T20:25:50.545Z,-0.80
2022-11-24T20:28:28.285Z,-0.76
2022-11-24T20:31:16.324Z,-0.74
2022-11-24T20:33:59.926Z,-0.70
2022-11-24T20:36:34.331Z,-0.68
2022-11-24T20:39:16.633Z,-0.71
2022-11-24T20:41:51.168Z,-0.71
2022-11-24T20:44:37.892Z,-0.72
2022-11-24T20:47:18.374Z,-0.71
2022-11-24T20:50:18.580Z,-0.70
2022-11-24T20:52:59.397Z,-0.70
2022-11-24T20:55:46.340Z,-0.70
2022-11-24T20:58:29.509Z,-0.69
2022-11-24T21:01:14.320Z,-0.65
2022-11-24T21:03:45.672Z,-0.61
2022-11-24T21:06:14.996Z,-0.58
2022-11-24T21:08:49.090Z,-0.53
2022-11-24T21:11:23.824Z,-0.50
2022-11-24T21:13:53.707Z,-0.54
2022-11-24T21:16:25.295Z,-0.55
2022-11-24T21:19:02.368Z,-0.55
2022-11-24T21:21:35.342Z,-0.55
2022-11-24T21:24:16.623Z,-0.55
2022-11-24T21:26:49.392Z,-0.52
2022-11-24T21:29:27.082Z,-0.49
2022-11-24T21:32:04.886Z,-0.45
2022-11-24T21:34:47.793Z,-0.41
2022-11-24T21:37:40.765Z,-0.36
2022-11-24T21:40:36.009Z,-0.30
2022-11-24T21:43:25.872Z,-0.27
2022-11-24T21:46:23.150Z,-0.23
2022-11-24T21:49:01.999Z,-0.17
2022-11-24T21:51:45.285Z,-0.16
2022-11-24T21:54:17.913Z,-0.17
2022-11-24T21:56:52.651Z,-0.19
2022-11-24T21:59:22.748Z,-0.23
2022-11-24T22:02:02.441Z,-0.23
2022-11-24T22:04:31.977Z,-0.25
2022-11-24T22:07:03.484Z,-0.24
2022-11-24T22:09:34.828Z,-0.27
2022-11-24T22:12:03.576Z,-0.27
2022-11-24T22:14:38.947Z,-0.28
2022-11-24T22:17:09.067Z,-0.30
2022-11-24T22:19:37.417Z,-0.30
2022-11-24T22:22:05.813Z,-0.29
2022-11-24T22:24:34.560Z,-0.27
2022-11-24T22:27:03.277Z,-0.26
2022-11-24T22:29:31.659Z,-0.25
2022-11-24T22:32:00.517Z,-0.22
2022-11-24T22:34:29.634Z,-0.23
2022-11-24T22:36:59.617Z,-0.24
2022-11-24T22:39:27.990Z,-0.26
2022-11-24T22:41:56.639Z,-0.25
2022-11-24T22:44:24.977Z,-0.24
2022-11-24T22:46:53.870Z,-0.25
2022-11-24T22:49:23.794Z,-0.25
2022-11-24T22:51:52.187Z,-0.26
2022-11-24T22:54:20.513Z,-0.27
2022-11-24T22:56:49.095Z,-0.26
2022-11-24T22:59:17.677Z,-0.25
2022-11-24T23:01:45.864Z,-0.25
2022-11-24T23:04:14.316Z,-0.25
2022-11-24T23:06:44.529Z,-0.26
2022-11-24T23:09:13.229Z,-0.25
2022-11-24T23:11:44.237Z,-0.24
2022-11-24T23:14:17.572Z,-0.21
2022-11-24T23:16:49.044Z,-0.21
2022-11-24T23:19:25.592Z,-0.21
2022-11-24T23:21:57.924Z,-0.19
2022-11-24T23:24:31.418Z,-0.17
2022-11-24T23:27:01.379Z,-0.15
2022-11-24T23:29:33.157Z,-0.14
2022-11-24T23:32:11.056Z,-0.11
2022-11-24T23:34:45.044Z,-0.07
2022-11-24T23:37:14.360Z,-0.00
2022-11-24T23:39:48.437Z,0.07
2022-11-24T23:42:22.933Z,0.12
2022-11-24T23:45:01.214Z,0.15
2022-11-24T23:47:32.667Z,0.19
2022-11-24T23:50:01.659Z,0.21
2022-11-24T23:52:35.732Z,0.23
2022-11-24T23:55:05.190Z,0.24
2022-11-24T23:57:42.114Z,0.25
